Nearby METAR Reports

 

LEXJ - Santander/Paraya, Spain
Distancia a la estación: ESE 6km
Actualizado: 12/12/2017 13:00
Lluvia, Muy nuboso
Lluvia, Muy nuboso
 Viento del S
Viento: S 11 km/h
Temperatura: 7°C
Sensación Térmica: 5°C
Rocío: 6°C
Humedad: 93%
Barómetro: 1018 hPa
Resumen: Lluvia
Nubes: Muy nuboso
Visibilidad: 7 km
Detalle Nubes: Parcialmente nuboso 488 m
Muy nuboso 1067 m
2017/12/12 12:00 LEXJ 121200Z 18006KT 7000 3000NW RA SCT016 BKN035 07/06 Q1018
LEBB - Bilbao/Sondica, Spain
Distancia a la estación: ESE 80km
Actualizado: 12/12/2017 13:00
Nubes dispersas
Nubes dispersas
 Viento del SO
Viento: SO 19 km/h
Temperatura: 9°C
Sensación Térmica: 6°C
Rocío: 5°C
Humedad: 76%
Barómetro: 1018 hPa
Nubes: Nubes dispersas
Visibilidad: 10 km
Detalle Nubes: Nubes dispersas 762 m
2017/12/12 12:00 LEBB 121200Z 23010KT 190V280 9999 FEW025 09/05 Q1018 TEMPO RA
 
LEZG - Zaragoza (mil/Ci, Spain
Distancia a la estación: NNE 176km
Actualizado: 12/12/2017 13:00
Nubes dispersas
Nubes dispersas
 Viento del ONO
Viento: ONO 31 km/h
Temperatura: 10°C
Sensación Térmica: 7°C
Rocío: 0°C
Humedad: 50%
Barómetro: 1016 hPa
Nubes: Nubes dispersas
Visibilidad: 10 km
Detalle Nubes: Nubes dispersas 1219 m
2017/12/12 12:00 LEZG 121200Z 30017KT 270V330 9999 FEW040 10/00 Q1016
LEVT - Vitoria, Spain
Distancia a la estación: ESE 114km
Actualizado: 12/12/2017 13:00
Parcialmente nuboso
Parcialmente nuboso
 Viento del SO
Viento: SO 7 km/h
Temperatura: 6°C
Sensación Térmica: 4°C
Rocío: 3°C
Humedad: 81%
Barómetro: 1017 hPa
Nubes: Parcialmente nuboso
Visibilidad: 10 km
Detalle Nubes: Nubes dispersas 488 m
Parcialmente nuboso 1372 m
2017/12/12 12:00 LEVT 121200Z 22004KT 190V280 9999 FEW016 SCT045 06/03 Q1017
 
LEBG - Burgos/Villafria, Spain
Distancia a la estación: S 122km
Actualizado: 12/12/2017 13:00
Muy nuboso
Muy nuboso
 Viento del SSO
Viento: SSO 15 km/h
Temperatura: 1°C
Sensación Térmica: -3°C
Rocío: -1°C
Humedad: 87%
Barómetro: 1017 hPa
Nubes: Muy nuboso
Visibilidad: 10 km
Detalle Nubes: Muy nuboso 274 m
2017/12/12 12:00 LEBG 121200Z 20008KT 170V240 9999 BKN009 01/M01 Q1017
LELO - Logrono/Agoncill, Spain
Distancia a la estación: SE 169km
Actualizado: 12/12/2017 13:00
Parcialmente nuboso
Parcialmente nuboso
 Viento del ONO
Viento: ONO 19 km/h
Temperatura: 7°C
Sensación Térmica: 4°C
Rocío: 2°C
Humedad: 71%
Barómetro: 1017 hPa
Nubes: Parcialmente nuboso
Visibilidad: 10 km
Detalle Nubes: Nubes dispersas 762 m
Parcialmente nuboso 1829 m
2017/12/12 12:00 LELO 121200Z 29010KT 9999 FEW025 SCT060 07/02 Q1017
 
LESO - San Sebastian/Fu, Spain
Distancia a la estación: E 169km
Actualizado: 12/12/2017 13:00
Nubes dispersas
Nubes dispersas
 Viento del SO
Viento: SO 7 km/h
Temperatura: 10°C
Sensación Térmica: 9°C
Rocío: 4°C
Humedad: 67%
Barómetro: 1017 hPa
Nubes: Nubes dispersas
Visibilidad: 10 km
Detalle Nubes: Nubes dispersas 762 m
2017/12/12 12:00 LESO 121200Z 23004KT 190V290 9999 FEW025 10/04 Q1017
LEAS - Asturias/Aviles, Spain
Distancia a la estación: O 172km
Actualizado: 12/12/2017 13:00
Nubes dispersas
Nubes dispersas
 Viento del SO
Viento: SO 19 km/h
Temperatura: 7°C
Sensación Térmica: 4°C
Rocío: 5°C
Humedad: 87%
Barómetro: 1018 hPa
Nubes: Nubes dispersas
Visibilidad: 10 km
Detalle Nubes: Nubes dispersas 1036 m
2017/12/12 12:00 LEAS 121200Z 23010KT 200V260 9999 FEW034TCU 07/05 Q1018 TEMPO SHRA
 
LELN - Leon/Virgen Cami, Spain
Distancia a la estación: SO 174km
Actualizado: 12/12/2017 13:00
Parcialmente nuboso
Parcialmente nuboso
 Viento del O
Viento: O 15 km/h
Temperatura: 4°C
Sensación Térmica: 1°C
Rocío: 1°C
Humedad: 81%
Barómetro: 1017 hPa
Nubes: Parcialmente nuboso
Visibilidad: 10 km
Detalle Nubes: Parcialmente nuboso 1341 m
2017/12/12 12:00 LELN 121200Z 28008KT 250V330 9999 SCT044 04/01 Q1017
LFBZ - Biarritz/Anglet, France
Distancia a la estación: E 191km
Actualizado: 12/12/2017 13:00
Nubes dispersas
Nubes dispersas
 Viento del SO
Viento: SO 13 km/h
Temperatura: 10°C
Sensación Térmica: 8°C
Rocío: 5°C
Humedad: 71%
Barómetro: 1017 hPa
Nubes: Nubes dispersas
Visibilidad: 10 km
Detalle Nubes: Nubes dispersas 1585 m
2017/12/12 12:00 LFBZ 121200Z AUTO 23007KT 190V290 9999 FEW052 10/05 Q1017 NOSIG
 
LEPP - Pamplona/Noain, Spain
Distancia a la estación: ESE 199km
Actualizado: 12/12/2017 13:00
Nubes dispersas
Nubes dispersas
 Viento del calm
Viento: Calma
Temperatura: 7°C
Rocío: 2°C
Humedad: 71%
Barómetro: 1017 hPa
Nubes: Nubes dispersas
Visibilidad: 10 km
Detalle Nubes: Nubes dispersas 518 m
2017/12/12 12:00 LEPP 121200Z 00000KT 9999 FEW017 07/02 Q1017
LEBL - Barcelona Airpor, Spain
Distancia a la estación: ESE 554km
Actualizado: 12/12/2017 13:00
Nubes dispersas
Nubes dispersas
 Viento del NNO
Viento: NNO 22 km/h
Temperatura: 11°C
Rocío: 3°C
Humedad: 58%
Barómetro: 1014 hPa
Nubes: Nubes dispersas
Visibilidad: 10 km
Detalle Nubes: Nubes dispersas 671 m
Nubes dispersas 732 m
2017/12/12 12:00 LEBL 121200Z 33012KT 280V360 9999 FEW022 FEW024TCU 11/03 Q1014 NOSIG
 
LEMD - Madrid/Barajas, Spain
Distancia a la estación: S 325km
Actualizado: 12/12/2017 13:00
Despejado
Despejado
 Viento del SSO
Viento: SSO 9 km/h
Temperatura: 7°C
Sensación Térmica: 6°C
Rocío: -4°C
Humedad: 46%
Barómetro: 1017 hPa
Resumen: Despejado
Visibilidad: greater than 10 km
2017/12/12 12:00 LEMD 121200Z 21005KT 170V290 CAVOK 07/M04 Q1017 NOSIG
LPPT - Lisbon/Portela, Portugal
Distancia a la estación: SO 663km
Actualizado: 12/12/2017 13:00
Nubes dispersas
Nubes dispersas
 Viento del N
Viento: N 17 km/h
Temperatura: 13°C
Rocío: 7°C
Humedad: 67%
Barómetro: 1021 hPa
Nubes: Nubes dispersas
Visibilidad: 10 km
Detalle Nubes: Nubes dispersas 914 m
2017/12/12 12:00 LPPT 121200Z 36009KT 9999 FEW030 13/07 Q1021
 
LECO - La Coruna/Alvedr, Spain
Distancia a la estación: O 349km
Actualizado: 12/12/2017 13:00
Nubes dispersas
Nubes dispersas
 Viento del S
Viento: S 6 km/h
Temperatura: 9°C
Rocío: 8°C
Humedad: 94%
Barómetro: 1020 hPa
Nubes: Nubes dispersas
Visibilidad: 10 km
Detalle Nubes: Nubes dispersas 823 m
2017/12/12 12:00 LECO 121200Z 17003KT 130V190 9999 FEW027 09/08 Q1020 NOSIG
LEST - Santiago/Labacol, Spain
Distancia a la estación: O 358km
Actualizado: 12/12/2017 13:00
Patches of fog, Parcialmente nuboso
Patches of fog, Parcialmente nuboso
 Viento del varies
Viento: varies 4 km/h
Temperatura: 8°C
Rocío: 6°C
Humedad: 87%
Barómetro: 1020 hPa
Resumen: Patches of Fog
Nubes: Parcialmente nuboso
Visibilidad: 10 km
Detalle Nubes: Nubes dispersas 213 m
Parcialmente nuboso 1280 m
2017/12/12 12:00 LEST 121200Z VRB02KT 9999 BCFG FEW007 SCT042 08/06 Q1020 NOSIG